Terminal Aerodrome Forecast
Issued by NWS Binghamton, NY

Home | Current Version | Previous Version | Text Only | Print | Product List | Glossary On
Versions: 1 2 3 4 5 6 7 8 9 10 11 12 13 14 15
000
FTUS41 KBGM 070859 AAA
TAFSYR
TAF AMD
KSYR 070859Z 0709/0806 15007KT P6SM SCT040 BKN120
      TEMPO 0711/0713 BKN025
     FM071400 22007KT P6SM SCT040 BKN200
     FM080300 23009KT 4SM -SHRA BR OVC025=

USA.gov is the U.S. government's official web portal to all federal, state and local government web resources and services.